createdAt,value
2019-03-11T00:01:51.180Z,1.33
2019-03-11T00:04:21.823Z,1.37
2019-03-11T00:06:52.064Z,1.77
2019-03-11T00:09:22.112Z,1.40
2019-03-11T00:11:51.989Z,1.60
2019-03-11T00:14:21.958Z,1.43
2019-03-11T00:16:54.946Z,1.00
2019-03-11T00:19:24.909Z,1.40
2019-03-11T00:21:55.007Z,1.40
2019-03-11T00:24:25.278Z,1.30
2019-03-11T00:26:55.238Z,1.13
2019-03-11T00:29:25.050Z,1.20
2019-03-11T00:31:55.123Z,1.20
2019-03-11T00:34:27.079Z,1.30
2019-03-11T00:36:57.040Z,1.10
2019-03-11T00:39:30.887Z,1.20
2019-03-11T00:42:01.494Z,1.40
2019-03-11T00:44:31.470Z,1.20
2019-03-11T00:47:03.828Z,1.20
2019-03-11T00:49:41.205Z,1.30
2019-03-11T00:52:10.926Z,1.43
2019-03-11T00:54:40.794Z,1.07
2019-03-11T00:57:10.535Z,1.50
2019-03-11T00:59:40.269Z,1.10
2019-03-11T01:02:10.159Z,1.67
2019-03-11T01:04:39.920Z,1.20
2019-03-11T01:07:09.767Z,1.30
2019-03-11T01:09:39.627Z,0.83
2019-03-11T01:12:09.585Z,1.53
2019-03-11T01:14:39.364Z,1.30
2019-03-11T01:17:09.244Z,1.30
2019-03-11T01:19:39.095Z,1.30
2019-03-11T01:22:08.942Z,1.20
2019-03-11T01:24:38.838Z,0.80
2019-03-11T01:27:11.208Z,1.20
2019-03-11T01:29:41.072Z,1.30
2019-03-11T01:32:10.851Z,1.00
2019-03-11T01:34:40.673Z,1.13
2019-03-11T01:37:10.580Z,1.00
2019-03-11T01:39:40.520Z,0.90
2019-03-11T01:42:11.044Z,0.93
2019-03-11T01:44:40.840Z,1.47
2019-03-11T01:47:10.626Z,1.23
2019-03-11T01:49:40.415Z,1.10
2019-03-11T01:52:10.228Z,1.50
2019-03-11T01:54:41.094Z,1.20
2019-03-11T01:57:11.288Z,1.30
2019-03-11T01:59:44.219Z,1.00
2019-03-11T02:02:22.108Z,0.90
2019-03-11T02:04:52.106Z,1.43
2019-03-11T02:07:22.074Z,1.30
2019-03-11T02:09:51.903Z,1.40
2019-03-11T02:12:22.386Z,1.20
2019-03-11T02:14:52.323Z,0.90
2019-03-11T02:17:22.138Z,0.87
2019-03-11T02:19:55.161Z,1.07
2019-03-11T02:22:24.971Z,1.03
2019-03-11T02:24:54.785Z,0.90
2019-03-11T02:27:24.731Z,1.07
2019-03-11T02:29:54.552Z,1.10
2019-03-11T02:32:24.341Z,1.10
2019-03-11T02:34:54.106Z,0.90
2019-03-11T02:37:25.419Z,1.20
2019-03-11T02:39:55.207Z,1.37
2019-03-11T02:42:24.972Z,1.00
2019-03-11T02:44:54.802Z,1.03
2019-03-11T02:47:24.643Z,1.00
2019-03-11T02:49:54.573Z,1.30
2019-03-11T02:52:24.474Z,1.17
2019-03-11T02:54:54.306Z,0.93
2019-03-11T02:57:24.170Z,0.90
2019-03-11T02:59:54.020Z,1.03
2019-03-11T03:02:42.798Z,1.10
2019-03-11T03:05:33.830Z,1.00
2019-03-11T03:08:03.620Z,0.90
2019-03-11T03:10:33.404Z,1.20
2019-03-11T03:13:05.043Z,0.90
2019-03-11T03:15:36.366Z,1.50
2019-03-11T03:18:06.342Z,1.40
2019-03-11T03:20:36.153Z,1.10
2019-03-11T03:23:06.029Z,0.93
2019-03-11T03:25:35.847Z,1.17
2019-03-11T03:28:05.780Z,1.00
2019-03-11T03:30:35.735Z,1.10
2019-03-11T03:33:05.510Z,1.17
2019-03-11T03:35:35.291Z,1.00
2019-03-11T03:38:05.087Z,1.10
2019-03-11T03:40:34.870Z,0.70
2019-03-11T03:43:04.619Z,1.10
2019-03-11T03:45:39.659Z,1.33
2019-03-11T03:48:09.378Z,0.90
2019-03-11T03:50:39.871Z,0.80
2019-03-11T03:53:10.273Z,0.70
2019-03-11T03:55:40.097Z,1.30
2019-03-11T03:58:09.878Z,0.80
2019-03-11T04:00:40.103Z,1.10
2019-03-11T04:03:09.984Z,1.00
2019-03-11T04:05:39.850Z,0.90
2019-03-11T04:08:09.649Z,1.10
2019-03-11T04:10:39.425Z,1.00
2019-03-11T04:13:09.383Z,1.00
2019-03-11T04:15:39.176Z,1.27
2019-03-11T04:18:10.579Z,1.10
2019-03-11T04:20:40.442Z,1.10
2019-03-11T04:23:10.235Z,1.40
2019-03-11T04:25:40.141Z,1.07
2019-03-11T04:28:09.951Z,1.07
2019-03-11T04:30:39.790Z,0.97
2019-03-11T04:33:09.592Z,1.00
2019-03-11T04:35:39.497Z,1.10
2019-03-11T04:38:09.197Z,1.10
2019-03-11T04:40:38.989Z,1.20
2019-03-11T04:43:08.739Z,1.03
2019-03-11T04:45:38.535Z,1.60
2019-03-11T04:48:08.414Z,1.03
2019-03-11T04:50:38.156Z,1.10
2019-03-11T04:53:08.009Z,1.20
2019-03-11T04:55:37.795Z,1.27
2019-03-11T04:58:07.616Z,1.40
2019-03-11T05:00:37.596Z,1.03
2019-03-11T05:03:07.392Z,1.23
2019-03-11T05:05:37.173Z,1.37
2019-03-11T05:08:06.915Z,1.37
2019-03-11T05:10:36.760Z,1.50
2019-03-11T05:13:06.542Z,1.97
2019-03-11T05:15:36.329Z,1.20
2019-03-11T05:18:06.142Z,1.47
2019-03-11T05:20:35.955Z,1.57
2019-03-11T05:23:05.745Z,1.50
2019-03-11T05:25:35.846Z,1.20
2019-03-11T05:28:06.218Z,1.40
2019-03-11T05:30:36.022Z,1.30
2019-03-11T05:33:06.028Z,1.40
2019-03-11T05:35:35.830Z,1.60
2019-03-11T05:38:05.663Z,1.60
2019-03-11T05:40:35.450Z,1.37
2019-03-11T05:43:05.402Z,1.43
2019-03-11T05:45:35.235Z,1.00
2019-03-11T05:48:05.009Z,1.90
2019-03-11T05:50:35.224Z,1.60
2019-03-11T05:53:05.007Z,1.40
2019-03-11T05:55:34.854Z,1.30
2019-03-11T05:58:04.667Z,1.30
2019-03-11T06:00:34.508Z,1.47
2019-03-11T06:03:04.381Z,1.43
2019-03-11T06:05:34.116Z,1.70
2019-03-11T06:08:03.895Z,1.37
2019-03-11T06:10:33.758Z,1.63
2019-03-11T06:13:03.631Z,1.70
2019-03-11T06:15:33.490Z,1.30
2019-03-11T06:18:03.282Z,1.93
2019-03-11T06:20:49.923Z,1.50
2019-03-11T06:23:19.658Z,1.30
2019-03-11T06:25:49.431Z,1.50
2019-03-11T06:28:19.132Z,1.30
2019-03-11T06:30:48.925Z,1.83
2019-03-11T06:33:18.653Z,1.80
2019-03-11T06:35:48.475Z,1.33
2019-03-11T06:38:18.196Z,1.67
2019-03-11T06:40:48.176Z,1.63
2019-03-11T06:43:17.952Z,1.60
2019-03-11T06:45:47.823Z,1.50
2019-03-11T06:48:19.268Z,1.70
2019-03-11T06:50:49.060Z,1.40
2019-03-11T06:53:18.884Z,2.00
2019-03-11T06:55:48.606Z,1.83
2019-03-11T06:58:18.288Z,1.80
2019-03-11T07:00:48.059Z,2.20
2019-03-11T07:03:17.935Z,1.80
2019-03-11T07:05:47.660Z,1.87
2019-03-11T07:08:17.452Z,2.63
2019-03-11T07:10:47.263Z,1.80
2019-03-11T07:13:17.102Z,1.83
2019-03-11T07:15:47.046Z,1.90
2019-03-11T07:18:17.232Z,1.80
2019-03-11T07:20:47.014Z,1.63
2019-03-11T07:23:16.894Z,1.90
2019-03-11T07:25:46.836Z,2.20
2019-03-11T07:28:19.722Z,2.90
2019-03-11T07:30:49.517Z,2.27
2019-03-11T07:33:19.608Z,2.10
2019-03-11T07:35:49.483Z,2.20
2019-03-11T07:38:19.366Z,2.07
2019-03-11T07:40:49.142Z,2.20
2019-03-11T07:43:18.950Z,2.13
2019-03-11T07:45:48.832Z,2.27
2019-03-11T07:48:18.633Z,2.23
2019-03-11T07:50:48.431Z,2.00
2019-03-11T07:53:18.323Z,2.40
2019-03-11T07:55:48.126Z,2.00
2019-03-11T07:58:17.971Z,1.90
2019-03-11T08:00:53.957Z,2.33
2019-03-11T08:03:19.296Z,1.70
2019-03-11T08:05:49.186Z,2.33
2019-03-11T08:08:18.945Z,2.30
2019-03-11T08:10:49.801Z,2.30
2019-03-11T08:13:20.482Z,2.10
2019-03-11T08:15:50.243Z,2.83
2019-03-11T08:18:20.054Z,2.43
2019-03-11T08:20:49.858Z,2.20
2019-03-11T08:23:19.650Z,2.47
2019-03-11T08:25:49.498Z,1.97
2019-03-11T08:28:19.279Z,2.40
2019-03-11T08:30:49.098Z,2.40
2019-03-11T08:33:18.873Z,1.63
2019-03-11T08:35:48.601Z,2.07
2019-03-11T08:38:18.421Z,2.53
2019-03-11T08:40:49.736Z,2.30
2019-03-11T08:43:19.555Z,2.13
2019-03-11T08:45:49.368Z,2.10
2019-03-11T08:48:19.515Z,2.20
2019-03-11T08:50:49.327Z,2.00
2019-03-11T08:53:19.187Z,1.90
2019-03-11T08:55:48.984Z,2.60
2019-03-11T08:58:18.750Z,1.87
2019-03-11T09:00:48.493Z,2.03
2019-03-11T09:03:18.337Z,2.37
2019-03-11T09:05:49.185Z,1.90
2019-03-11T09:08:18.992Z,2.00
2019-03-11T09:10:48.810Z,2.10
2019-03-11T09:13:18.587Z,1.87
2019-03-11T09:15:48.445Z,2.47
2019-03-11T09:18:18.307Z,1.93
2019-03-11T09:20:48.107Z,2.10
2019-03-11T09:23:17.888Z,2.27
2019-03-11T09:25:47.693Z,2.20
2019-03-11T09:28:17.596Z,2.33
2019-03-11T09:30:47.412Z,2.10
2019-03-11T09:33:17.415Z,1.97
2019-03-11T09:35:47.220Z,2.20
2019-03-11T09:38:18.618Z,2.63
2019-03-11T09:40:50.044Z,2.53
2019-03-11T09:43:19.841Z,2.07
2019-03-11T09:45:52.703Z,2.20
2019-03-11T09:48:21.769Z,1.83
2019-03-11T09:50:51.539Z,2.30
2019-03-11T09:53:24.073Z,2.30
2019-03-11T09:55:54.950Z,2.53
2019-03-11T09:58:24.813Z,2.10
2019-03-11T10:00:59.054Z,2.33
2019-03-11T10:03:28.882Z,2.00
2019-03-11T10:05:58.782Z,2.57
2019-03-11T10:08:28.601Z,2.33
2019-03-11T10:10:58.352Z,2.37
2019-03-11T10:13:28.190Z,2.83
2019-03-11T10:15:58.461Z,2.33
2019-03-11T10:18:28.330Z,2.47
2019-03-11T10:20:59.474Z,2.47
2019-03-11T10:23:32.296Z,2.30
2019-03-11T10:26:00.752Z,2.10
2019-03-11T10:28:31.247Z,2.20
2019-03-11T10:31:00.975Z,1.93
2019-03-11T10:33:32.363Z,2.10
2019-03-11T10:36:02.098Z,2.40
2019-03-11T10:38:32.729Z,2.43
2019-03-11T10:41:04.745Z,2.10
2019-03-11T10:43:40.136Z,2.30
2019-03-11T10:46:09.943Z,2.07
2019-03-11T10:48:40.899Z,2.43
2019-03-11T10:51:10.658Z,2.40
2019-03-11T10:53:52.160Z,2.20
2019-03-11T10:56:23.536Z,2.40
2019-03-11T10:58:55.359Z,2.23
2019-03-11T11:01:25.059Z,2.33
2019-03-11T11:03:58.055Z,2.07
2019-03-11T11:06:26.485Z,2.57
2019-03-11T11:08:56.294Z,2.40
2019-03-11T11:11:26.194Z,2.23
2019-03-11T11:14:01.807Z,2.70
2019-03-11T11:16:35.468Z,2.60
2019-03-11T11:19:07.091Z,2.47
2019-03-11T11:21:38.263Z,2.13
2019-03-11T11:24:08.264Z,1.90
2019-03-11T11:26:38.293Z,2.03
2019-03-11T11:29:08.100Z,2.23
2019-03-11T11:31:38.221Z,2.23
2019-03-11T11:34:09.867Z,2.20
2019-03-11T11:36:41.884Z,2.27
2019-03-11T11:39:17.166Z,2.03
2019-03-11T11:41:56.059Z,1.87
2019-03-11T11:47:31.987Z,1.70
2019-03-11T11:50:04.019Z,1.50
2019-03-11T11:52:39.771Z,1.40
2019-03-11T11:55:21.356Z,2.10
2019-03-11T11:58:23.379Z,1.10
2019-03-11T12:03:40.346Z,1.63
2019-03-11T12:12:02.077Z,1.63
2019-03-11T12:14:35.922Z,2.60
2019-03-11T12:17:29.867Z,1.57
2019-03-11T12:19:51.384Z,1.20
2019-03-11T12:22:25.565Z,1.40
2019-03-11T12:28:12.159Z,1.67
2019-03-11T12:30:44.966Z,1.87
2019-03-11T12:33:14.847Z,2.17
2019-03-11T12:35:47.277Z,1.50
2019-03-11T12:38:17.076Z,1.10
2019-03-11T12:40:47.053Z,0.80
2019-03-11T12:43:16.873Z,0.80
2019-03-11T12:45:46.746Z,0.53
2019-03-11T12:48:16.479Z,0.77
2019-03-11T12:50:49.322Z,0.80
2019-03-11T12:53:19.127Z,1.70
2019-03-11T12:55:52.540Z,1.43
2019-03-11T12:58:22.522Z,1.00
2019-03-11T13:00:52.302Z,1.20
2019-03-11T13:03:22.078Z,1.43
2019-03-11T13:05:51.909Z,1.10
2019-03-11T13:08:21.780Z,1.30
2019-03-11T13:10:51.564Z,1.20
2019-03-11T13:13:21.392Z,1.20
2019-03-11T13:15:51.174Z,1.00
2019-03-11T13:18:47.543Z,1.20
2019-03-11T13:21:23.251Z,0.87
2019-03-11T13:23:53.186Z,1.37
2019-03-11T13:26:26.840Z,1.00
2019-03-11T13:28:56.683Z,1.17
2019-03-11T13:31:28.893Z,1.27
2019-03-11T13:33:58.670Z,1.50
2019-03-11T13:36:29.507Z,1.23
2019-03-11T13:39:01.560Z,1.30
2019-03-11T13:41:31.325Z,1.20
2019-03-11T13:44:01.743Z,1.93
2019-03-11T13:46:31.611Z,1.30
2019-03-11T13:49:09.808Z,1.33
2019-03-11T13:51:57.607Z,1.20
2019-03-11T13:54:45.265Z,1.63
2019-03-11T13:57:26.169Z,1.67
2019-03-11T13:59:57.499Z,1.20
2019-03-11T14:02:35.344Z,1.30
2019-03-11T14:05:34.430Z,1.37
2019-03-11T14:08:10.170Z,1.27
2019-03-11T14:10:47.863Z,1.20
2019-03-11T14:13:24.359Z,1.30
2019-03-11T14:16:28.924Z,1.10
2019-03-11T14:19:06.338Z,1.30
2019-03-11T14:21:55.489Z,1.10
2019-03-11T14:24:37.766Z,0.97
2019-03-11T14:27:06.983Z,1.17
2019-03-11T14:29:36.680Z,1.30
2019-03-11T14:32:16.074Z,1.27
2019-03-11T14:35:02.794Z,1.67
2019-03-11T14:38:04.088Z,1.33
2019-03-11T14:40:42.284Z,1.47
2019-03-11T14:43:14.617Z,1.57
2019-03-11T14:45:47.167Z,1.20
2019-03-11T14:48:16.994Z,1.00
2019-03-11T14:50:47.668Z,1.13
2019-03-11T14:53:18.441Z,1.13
2019-03-11T14:55:48.289Z,1.40
2019-03-11T14:58:29.068Z,1.20
2019-03-11T15:00:55.881Z,1.20
2019-03-11T15:03:36.033Z,0.90
2019-03-11T15:06:07.986Z,1.10
2019-03-11T15:08:42.306Z,1.10
2019-03-11T15:11:13.095Z,1.10
2019-03-11T15:13:49.412Z,1.40
2019-03-11T15:16:20.462Z,1.20
2019-03-11T15:18:53.136Z,1.30
2019-03-11T15:21:31.542Z,1.23
2019-03-11T15:24:17.126Z,1.10
2019-03-11T15:26:53.486Z,1.43
2019-03-11T15:29:35.330Z,1.20
2019-03-11T15:32:18.877Z,1.07
2019-03-11T15:35:05.995Z,0.80
2019-03-11T15:37:56.496Z,1.00
2019-03-11T15:40:33.720Z,1.07
2019-03-11T15:43:17.672Z,0.87
2019-03-11T15:45:51.776Z,1.10
2019-03-11T15:48:21.486Z,1.37
2019-03-11T15:50:52.751Z,1.30
2019-03-11T15:53:29.558Z,1.20
2019-03-11T15:56:02.975Z,1.00
2019-03-11T15:58:37.553Z,1.70
2019-03-11T16:01:14.466Z,1.10
2019-03-11T16:03:51.575Z,1.27
2019-03-11T16:06:26.736Z,1.43
2019-03-11T16:08:57.607Z,1.40
2019-03-11T16:11:31.807Z,1.50
2019-03-11T16:14:06.956Z,1.70
2019-03-11T16:16:39.623Z,1.27
2019-03-11T16:19:22.027Z,1.30
2019-03-11T16:21:54.551Z,1.27
2019-03-11T16:24:24.714Z,1.33
2019-03-11T16:26:54.564Z,1.40
2019-03-11T16:29:24.463Z,1.40
2019-03-11T16:31:54.335Z,1.40
2019-03-11T16:34:24.180Z,1.13
2019-03-11T16:36:54.120Z,1.03
2019-03-11T16:39:24.212Z,1.17
2019-03-11T16:41:55.157Z,1.67
2019-03-11T16:44:25.180Z,1.30
2019-03-11T16:46:55.027Z,0.80
2019-03-11T16:49:24.872Z,1.43
2019-03-11T16:51:54.716Z,1.17
2019-03-11T16:54:28.111Z,1.70
2019-03-11T16:56:59.743Z,1.23
2019-03-11T16:59:29.680Z,1.33
2019-03-11T17:01:59.447Z,1.40
2019-03-11T17:04:29.379Z,1.60
2019-03-11T17:06:59.079Z,1.47
2019-03-11T17:09:28.951Z,1.47
2019-03-11T17:11:58.653Z,1.37
2019-03-11T17:14:28.525Z,1.70
2019-03-11T17:16:58.217Z,1.30
2019-03-11T17:19:28.011Z,1.47
2019-03-11T17:21:57.788Z,1.60
2019-03-11T17:24:27.568Z,1.77
2019-03-11T17:26:57.425Z,1.70
2019-03-11T17:29:27.241Z,1.70
2019-03-11T17:31:56.964Z,1.80
2019-03-11T17:34:26.746Z,1.20
2019-03-11T17:36:56.568Z,1.63
2019-03-11T17:39:26.322Z,1.50
2019-03-11T17:41:56.012Z,1.63
2019-03-11T17:44:26.709Z,1.40
2019-03-11T17:46:57.383Z,1.20
2019-03-11T17:49:27.256Z,2.80
2019-03-11T17:51:57.163Z,1.67
2019-03-11T17:54:35.748Z,1.63
2019-03-11T17:57:06.193Z,1.73
2019-03-11T17:59:37.046Z,1.90
2019-03-11T18:02:08.844Z,1.50
2019-03-11T18:04:38.500Z,2.30
2019-03-11T18:07:08.550Z,1.90
2019-03-11T18:09:40.605Z,1.60
2019-03-11T18:15:13.880Z,2.00
2019-03-11T18:17:43.797Z,2.10
2019-03-11T18:20:14.199Z,1.90
2019-03-11T18:22:44.029Z,1.60
2019-03-11T18:25:14.513Z,2.00
2019-03-11T18:27:44.482Z,1.60
2019-03-11T18:30:17.742Z,2.10
2019-03-11T18:32:47.831Z,2.60
2019-03-11T18:35:18.474Z,1.50
2019-03-11T18:37:48.433Z,2.30
2019-03-11T18:40:18.594Z,2.17
2019-03-11T18:42:48.632Z,2.23
2019-03-11T18:45:18.459Z,2.30
2019-03-11T18:47:48.458Z,2.20
2019-03-11T18:50:18.393Z,2.60
2019-03-11T18:52:49.944Z,1.70
2019-03-11T18:55:20.002Z,1.90
2019-03-11T18:57:53.883Z,1.97
2019-03-11T19:00:25.002Z,1.80
2019-03-11T19:03:00.185Z,1.93
2019-03-11T19:05:31.113Z,2.10
2019-03-11T19:08:01.138Z,1.73
2019-03-11T19:10:32.161Z,2.20
2019-03-11T19:13:02.115Z,1.90
2019-03-11T19:15:32.422Z,1.80
2019-03-11T19:18:02.223Z,2.03
2019-03-11T19:20:32.028Z,2.20
2019-03-11T19:23:01.895Z,1.77
2019-03-11T19:25:31.617Z,2.10
2019-03-11T19:28:01.405Z,2.37
2019-03-11T19:30:31.621Z,2.17
2019-03-11T19:33:01.523Z,2.37
2019-03-11T19:35:31.880Z,2.73
2019-03-11T19:38:01.777Z,2.80
2019-03-11T19:40:31.635Z,2.20
2019-03-11T19:43:01.442Z,3.17
2019-03-11T19:45:31.339Z,2.63
2019-03-11T19:48:01.213Z,3.03
2019-03-11T19:50:31.695Z,2.87
2019-03-11T19:53:01.426Z,2.80
2019-03-11T19:55:31.142Z,3.17
2019-03-11T19:58:00.987Z,3.70
2019-03-11T20:00:31.078Z,3.53
2019-03-11T20:03:00.928Z,2.90
2019-03-11T20:05:31.441Z,2.70
2019-03-11T20:08:03.844Z,2.40
2019-03-11T20:10:33.766Z,2.70
2019-03-11T20:13:03.572Z,2.70
2019-03-11T20:15:33.470Z,2.80
2019-03-11T20:18:03.237Z,2.60
2019-03-11T20:20:32.979Z,2.30
2019-03-11T20:23:02.795Z,2.50
2019-03-11T20:25:32.765Z,2.03
2019-03-11T20:28:02.717Z,2.20
2019-03-11T20:30:32.580Z,2.50
2019-03-11T20:33:03.941Z,2.37
2019-03-11T20:35:33.991Z,2.47
2019-03-11T20:38:03.832Z,2.60
2019-03-11T20:40:33.664Z,2.60
2019-03-11T20:43:03.669Z,2.20
2019-03-11T20:45:35.827Z,2.20
2019-03-11T20:48:06.384Z,2.60
2019-03-11T20:50:42.154Z,2.63
2019-03-11T20:53:08.340Z,2.67
2019-03-11T20:55:38.591Z,2.40
2019-03-11T20:58:08.725Z,2.90
2019-03-11T21:00:38.714Z,2.57
2019-03-11T21:03:09.504Z,2.63
2019-03-11T21:05:39.657Z,2.80
2019-03-11T21:08:09.809Z,2.90
2019-03-11T21:10:39.902Z,3.47
2019-03-11T21:13:09.874Z,3.33
2019-03-11T21:15:39.645Z,3.50
2019-03-11T21:18:09.530Z,3.43
2019-03-11T21:20:39.372Z,3.63
2019-03-11T21:23:09.168Z,3.10
2019-03-11T21:25:38.901Z,3.20
2019-03-11T21:28:08.664Z,3.47
2019-03-11T21:30:38.589Z,3.63
2019-03-11T21:33:08.350Z,3.70
2019-03-11T21:35:38.620Z,3.50
2019-03-11T21:38:08.378Z,3.73
2019-03-11T21:40:38.210Z,3.70
2019-03-11T21:43:08.075Z,3.97
2019-03-11T21:45:37.795Z,3.40
2019-03-11T21:48:08.671Z,3.53
2019-03-11T21:50:38.533Z,3.73
2019-03-11T21:53:09.772Z,3.57
2019-03-11T21:55:39.550Z,3.80
2019-03-11T21:58:13.430Z,3.80
2019-03-11T22:00:42.937Z,3.43
2019-03-11T22:03:12.639Z,3.63
2019-03-11T22:05:44.588Z,3.77
2019-03-11T22:08:14.362Z,3.90
2019-03-11T22:10:44.222Z,3.83
2019-03-11T22:13:14.035Z,3.50
2019-03-11T22:15:43.919Z,3.90
2019-03-11T22:18:13.668Z,3.73
2019-03-11T22:20:43.769Z,4.23
2019-03-11T22:23:13.679Z,3.90
2019-03-11T22:25:43.459Z,4.33
2019-03-11T22:28:13.290Z,4.10
2019-03-11T22:30:43.071Z,3.63
2019-03-11T22:33:13.825Z,4.13
2019-03-11T22:35:44.718Z,3.90
2019-03-11T22:38:16.347Z,4.37
2019-03-11T22:40:46.362Z,4.37
2019-03-11T22:43:16.105Z,4.83
2019-03-11T22:45:48.173Z,4.33
2019-03-11T22:48:20.714Z,4.07
2019-03-11T22:50:49.479Z,4.00
2019-03-11T22:53:19.224Z,4.07
2019-03-11T22:55:50.327Z,4.00
2019-03-11T22:58:20.123Z,4.00
2019-03-11T23:01:04.358Z,4.17
2019-03-11T23:03:34.152Z,4.37
2019-03-11T23:06:04.583Z,3.63
2019-03-11T23:08:34.393Z,3.57
2019-03-11T23:11:04.348Z,4.10
2019-03-11T23:13:34.136Z,3.90
2019-03-11T23:16:03.898Z,4.03
2019-03-11T23:18:33.727Z,3.90
2019-03-11T23:21:03.526Z,3.90
2019-03-11T23:23:33.334Z,3.53
2019-03-11T23:26:03.014Z,4.07
2019-03-11T23:28:32.764Z,3.80
2019-03-11T23:31:03.655Z,3.93
2019-03-11T23:33:34.832Z,3.80
2019-03-11T23:36:07.097Z,3.87
2019-03-11T23:38:36.096Z,3.77
2019-03-11T23:41:05.934Z,4.27
2019-03-11T23:43:35.633Z,4.37
2019-03-11T23:46:05.436Z,3.90
2019-03-11T23:48:35.177Z,4.80
2019-03-11T23:51:04.927Z,4.43
2019-03-11T23:53:34.719Z,4.40
2019-03-11T23:56:05.832Z,4.43
2019-03-11T23:58:36.727Z,4.77
